sensor_id;sensor_type;location;lat;lon;timestamp;P1;durP1;ratioP1;P2;durP2;ratioP2
21299;SDS011;10809;49.476;11.016;2023-04-25T00:00:00;2.17;;;1.80;;
21299;SDS011;10809;49.476;11.016;2023-04-25T00:02:31;2.23;;;1.60;;
21299;SDS011;10809;49.476;11.016;2023-04-25T00:05:02;2.43;;;1.60;;
21299;SDS011;10809;49.476;11.016;2023-04-25T00:07:36;4.70;;;1.57;;
21299;SDS011;10809;49.476;11.016;2023-04-25T00:10:06;3.37;;;1.97;;
21299;SDS011;10809;49.476;11.016;2023-04-25T00:12:44;2.87;;;1.70;;
21299;SDS011;10809;49.476;11.016;2023-04-25T00:15:20;1.90;;;1.80;;
21299;SDS011;10809;49.476;11.016;2023-04-25T00:17:57;2.40;;;1.30;;
21299;SDS011;10809;49.476;11.016;2023-04-25T00:20:30;2.00;;;1.90;;
21299;SDS011;10809;49.476;11.016;2023-04-25T00:23:01;1.50;;;1.40;;
21299;SDS011;10809;49.476;11.016;2023-04-25T00:25:35;1.60;;;1.43;;
21299;SDS011;10809;49.476;11.016;2023-04-25T00:28:05;1.67;;;1.47;;
21299;SDS011;10809;49.476;11.016;2023-04-25T00:30:36;1.50;;;1.40;;
21299;SDS011;10809;49.476;11.016;2023-04-25T00:33:12;1.70;;;1.40;;
21299;SDS011;10809;49.476;11.016;2023-04-25T00:35:46;1.53;;;1.43;;
21299;SDS011;10809;49.476;11.016;2023-04-25T00:38:17;1.77;;;1.67;;
21299;SDS011;10809;49.476;11.016;2023-04-25T00:40:54;1.77;;;1.47;;
21299;SDS011;10809;49.476;11.016;2023-04-25T00:43:28;1.60;;;1.50;;
21299;SDS011;10809;49.476;11.016;2023-04-25T00:46:08;2.17;;;1.97;;
21299;SDS011;10809;49.476;11.016;2023-04-25T00:48:39;2.27;;;1.60;;
21299;SDS011;10809;49.476;11.016;2023-04-25T00:51:19;1.70;;;1.60;;
21299;SDS011;10809;49.476;11.016;2023-04-25T00:53:51;2.37;;;1.60;;
21299;SDS011;10809;49.476;11.016;2023-04-25T00:56:30;2.17;;;1.60;;
21299;SDS011;10809;49.476;11.016;2023-04-25T00:59:01;2.13;;;1.53;;
21299;SDS011;10809;49.476;11.016;2023-04-25T01:01:32;1.67;;;1.57;;
21299;SDS011;10809;49.476;11.016;2023-04-25T01:04:03;1.70;;;1.60;;
21299;SDS011;10809;49.476;11.016;2023-04-25T01:06:34;1.57;;;1.47;;
21299;SDS011;10809;49.476;11.016;2023-04-25T01:09:08;1.43;;;1.33;;
21299;SDS011;10809;49.476;11.016;2023-04-25T01:11:40;1.33;;;1.23;;
21299;SDS011;10809;49.476;11.016;2023-04-25T01:14:10;1.43;;;1.30;;
21299;SDS011;10809;49.476;11.016;2023-04-25T01:16:41;1.33;;;1.23;;
21299;SDS011;10809;49.476;11.016;2023-04-25T01:19:20;1.73;;;1.57;;
21299;SDS011;10809;49.476;11.016;2023-04-25T01:21:54;1.33;;;1.23;;
21299;SDS011;10809;49.476;11.016;2023-04-25T01:24:28;1.50;;;1.30;;
21299;SDS011;10809;49.476;11.016;2023-04-25T01:27:00;1.40;;;1.30;;
21299;SDS011;10809;49.476;11.016;2023-04-25T01:29:34;1.30;;;1.20;;
21299;SDS011;10809;49.476;11.016;2023-04-25T01:32:05;1.43;;;1.33;;
21299;SDS011;10809;49.476;11.016;2023-04-25T01:34:38;1.43;;;1.33;;
21299;SDS011;10809;49.476;11.016;2023-04-25T01:37:09;1.40;;;1.30;;
21299;SDS011;10809;49.476;11.016;2023-04-25T01:39:42;2.23;;;1.43;;
21299;SDS011;10809;49.476;11.016;2023-04-25T01:42:14;1.73;;;1.63;;
21299;SDS011;10809;49.476;11.016;2023-04-25T01:44:45;1.83;;;1.43;;
21299;SDS011;10809;49.476;11.016;2023-04-25T01:47:16;1.37;;;1.13;;
21299;SDS011;10809;49.476;11.016;2023-04-25T01:49:47;1.30;;;1.23;;
21299;SDS011;10809;49.476;11.016;2023-04-25T01:52:18;2.17;;;1.20;;
21299;SDS011;10809;49.476;11.016;2023-04-25T01:54:57;1.67;;;1.57;;
21299;SDS011;10809;49.476;11.016;2023-04-25T01:57:34;1.60;;;1.50;;
21299;SDS011;10809;49.476;11.016;2023-04-25T02:00:09;1.53;;;1.43;;
21299;SDS011;10809;49.476;11.016;2023-04-25T02:02:43;2.53;;;1.80;;
21299;SDS011;10809;49.476;11.016;2023-04-25T02:05:35;1.07;;;1.00;;
21299;SDS011;10809;49.476;11.016;2023-04-25T02:08:08;2.33;;;1.37;;
21299;SDS011;10809;49.476;11.016;2023-04-25T02:10:40;2.93;;;1.47;;
21299;SDS011;10809;49.476;11.016;2023-04-25T02:13:22;1.17;;;1.17;;
21299;SDS011;10809;49.476;11.016;2023-04-25T02:16:09;1.70;;;1.60;;
21299;SDS011;10809;49.476;11.016;2023-04-25T02:18:42;1.70;;;1.60;;
21299;SDS011;10809;49.476;11.016;2023-04-25T02:21:13;1.53;;;1.43;;
21299;SDS011;10809;49.476;11.016;2023-04-25T02:23:43;1.57;;;1.40;;
21299;SDS011;10809;49.476;11.016;2023-04-25T02:26:22;2.57;;;1.73;;
21299;SDS011;10809;49.476;11.016;2023-04-25T02:28:55;1.60;;;1.37;;
21299;SDS011;10809;49.476;11.016;2023-04-25T02:31:33;1.20;;;1.10;;
21299;SDS011;10809;49.476;11.016;2023-04-25T02:34:03;4.77;;;1.83;;
21299;SDS011;10809;49.476;11.016;2023-04-25T02:36:34;1.63;;;1.50;;
21299;SDS011;10809;49.476;11.016;2023-04-25T02:39:08;1.87;;;1.70;;
21299;SDS011;10809;49.476;11.016;2023-04-25T02:41:45;1.53;;;1.43;;
21299;SDS011;10809;49.476;11.016;2023-04-25T02:44:17;4.37;;;1.60;;
21299;SDS011;10809;49.476;11.016;2023-04-25T02:46:52;1.57;;;1.47;;
21299;SDS011;10809;49.476;11.016;2023-04-25T02:49:35;1.83;;;1.73;;
21299;SDS011;10809;49.476;11.016;2023-04-25T02:52:06;2.07;;;1.97;;
21299;SDS011;10809;49.476;11.016;2023-04-25T02:54:37;2.47;;;1.70;;
21299;SDS011;10809;49.476;11.016;2023-04-25T02:57:09;2.17;;;1.67;;
21299;SDS011;10809;49.476;11.016;2023-04-25T02:59:42;1.80;;;1.70;;
21299;SDS011;10809;49.476;11.016;2023-04-25T03:02:12;2.30;;;1.70;;
21299;SDS011;10809;49.476;11.016;2023-04-25T03:04:43;3.50;;;2.00;;
21299;SDS011;10809;49.476;11.016;2023-04-25T03:07:13;1.67;;;1.57;;
21299;SDS011;10809;49.476;11.016;2023-04-25T03:09:47;4.03;;;2.30;;
21299;SDS011;10809;49.476;11.016;2023-04-25T03:12:17;2.87;;;2.10;;
21299;SDS011;10809;49.476;11.016;2023-04-25T03:14:49;2.67;;;2.47;;
21299;SDS011;10809;49.476;11.016;2023-04-25T03:17:30;2.80;;;2.60;;
21299;SDS011;10809;49.476;11.016;2023-04-25T03:20:02;2.67;;;2.30;;
21299;SDS011;10809;49.476;11.016;2023-04-25T03:22:40;5.17;;;2.63;;
21299;SDS011;10809;49.476;11.016;2023-04-25T03:25:24;3.20;;;2.17;;
21299;SDS011;10809;49.476;11.016;2023-04-25T03:28:03;2.53;;;2.33;;
21299;SDS011;10809;49.476;11.016;2023-04-25T03:30:34;3.53;;;2.60;;
21299;SDS011;10809;49.476;11.016;2023-04-25T03:33:05;2.80;;;2.47;;
21299;SDS011;10809;49.476;11.016;2023-04-25T03:35:35;3.03;;;2.50;;
21299;SDS011;10809;49.476;11.016;2023-04-25T03:38:06;3.77;;;2.97;;
21299;SDS011;10809;49.476;11.016;2023-04-25T03:40:42;3.97;;;2.70;;
21299;SDS011;10809;49.476;11.016;2023-04-25T03:43:40;3.50;;;2.80;;
21299;SDS011;10809;49.476;11.016;2023-04-25T03:46:14;2.33;;;2.17;;
21299;SDS011;10809;49.476;11.016;2023-04-25T03:48:47;3.17;;;2.53;;
21299;SDS011;10809;49.476;11.016;2023-04-25T03:51:24;3.97;;;2.63;;
21299;SDS011;10809;49.476;11.016;2023-04-25T03:54:05;4.27;;;3.10;;
21299;SDS011;10809;49.476;11.016;2023-04-25T03:56:55;3.83;;;2.90;;
21299;SDS011;10809;49.476;11.016;2023-04-25T03:59:48;3.30;;;3.00;;
21299;SDS011;10809;49.476;11.016;2023-04-25T04:02:20;2.60;;;2.37;;
21299;SDS011;10809;49.476;11.016;2023-04-25T04:04:54;5.00;;;3.00;;
21299;SDS011;10809;49.476;11.016;2023-04-25T04:07:26;3.07;;;2.77;;
21299;SDS011;10809;49.476;11.016;2023-04-25T04:10:03;3.97;;;2.47;;
21299;SDS011;10809;49.476;11.016;2023-04-25T04:12:40;3.23;;;2.93;;
21299;SDS011;10809;49.476;11.016;2023-04-25T04:15:13;4.07;;;2.73;;
21299;SDS011;10809;49.476;11.016;2023-04-25T04:17:45;2.93;;;2.60;;
21299;SDS011;10809;49.476;11.016;2023-04-25T04:20:17;4.17;;;3.03;;
21299;SDS011;10809;49.476;11.016;2023-04-25T04:22:51;3.40;;;3.10;;
21299;SDS011;10809;49.476;11.016;2023-04-25T04:25:28;3.30;;;2.90;;
21299;SDS011;10809;49.476;11.016;2023-04-25T04:28:26;3.63;;;2.80;;
21299;SDS011;10809;49.476;11.016;2023-04-25T04:31:16;3.63;;;2.97;;
21299;SDS011;10809;49.476;11.016;2023-04-25T04:33:50;2.67;;;2.47;;
21299;SDS011;10809;49.476;11.016;2023-04-25T04:36:21;4.03;;;2.63;;
21299;SDS011;10809;49.476;11.016;2023-04-25T04:38:56;3.73;;;2.93;;
21299;SDS011;10809;49.476;11.016;2023-04-25T04:41:42;2.90;;;2.47;;
21299;SDS011;10809;49.476;11.016;2023-04-25T04:44:38;3.17;;;2.33;;
21299;SDS011;10809;49.476;11.016;2023-04-25T04:47:17;3.33;;;2.90;;
21299;SDS011;10809;49.476;11.016;2023-04-25T04:50:06;4.93;;;3.47;;
21299;SDS011;10809;49.476;11.016;2023-04-25T04:53:05;3.33;;;3.03;;
21299;SDS011;10809;49.476;11.016;2023-04-25T04:55:50;3.43;;;3.10;;
21299;SDS011;10809;49.476;11.016;2023-04-25T04:58:29;3.33;;;2.70;;
21299;SDS011;10809;49.476;11.016;2023-04-25T05:01:24;2.60;;;2.40;;
21299;SDS011;10809;49.476;11.016;2023-04-25T05:04:33;3.97;;;3.00;;
21299;SDS011;10809;49.476;11.016;2023-04-25T05:07:22;3.73;;;3.00;;
21299;SDS011;10809;49.476;11.016;2023-04-25T05:10:06;3.03;;;2.73;;
21299;SDS011;10809;49.476;11.016;2023-04-25T05:12:56;2.97;;;2.70;;
21299;SDS011;10809;49.476;11.016;2023-04-25T05:15:45;3.93;;;3.33;;
21299;SDS011;10809;49.476;11.016;2023-04-25T05:18:31;3.43;;;2.90;;
21299;SDS011;10809;49.476;11.016;2023-04-25T05:21:20;2.60;;;2.40;;
21299;SDS011;10809;49.476;11.016;2023-04-25T05:24:03;3.83;;;3.10;;
21299;SDS011;10809;49.476;11.016;2023-04-25T05:26:53;3.60;;;2.80;;
21299;SDS011;10809;49.476;11.016;2023-04-25T05:29:41;2.77;;;2.57;;
21299;SDS011;10809;49.476;11.016;2023-04-25T05:32:26;2.87;;;2.67;;
21299;SDS011;10809;49.476;11.016;2023-04-25T05:35:00;3.80;;;2.83;;
21299;SDS011;10809;49.476;11.016;2023-04-25T05:37:41;3.10;;;2.83;;
21299;SDS011;10809;49.476;11.016;2023-04-25T05:40:15;7.73;;;3.27;;
21299;SDS011;10809;49.476;11.016;2023-04-25T05:43:04;3.57;;;2.90;;
21299;SDS011;10809;49.476;11.016;2023-04-25T05:45:53;3.33;;;3.03;;
21299;SDS011;10809;49.476;11.016;2023-04-25T05:48:44;3.27;;;2.97;;
21299;SDS011;10809;49.476;11.016;2023-04-25T05:51:34;6.13;;;3.43;;
21299;SDS011;10809;49.476;11.016;2023-04-25T05:54:28;3.20;;;2.83;;
21299;SDS011;10809;49.476;11.016;2023-04-25T05:57:00;3.27;;;2.97;;
21299;SDS011;10809;49.476;11.016;2023-04-25T05:59:32;3.17;;;2.43;;
21299;SDS011;10809;49.476;11.016;2023-04-25T06:02:03;2.53;;;2.33;;
21299;SDS011;10809;49.476;11.016;2023-04-25T06:04:37;2.87;;;2.67;;
21299;SDS011;10809;49.476;11.016;2023-04-25T06:07:07;3.40;;;3.10;;
21299;SDS011;10809;49.476;11.016;2023-04-25T06:09:39;4.37;;;2.93;;
21299;SDS011;10809;49.476;11.016;2023-04-25T06:12:10;3.47;;;3.07;;
21299;SDS011;10809;49.476;11.016;2023-04-25T06:14:44;3.30;;;3.00;;
21299;SDS011;10809;49.476;11.016;2023-04-25T06:17:18;4.07;;;3.40;;
21299;SDS011;10809;49.476;11.016;2023-04-25T06:19:48;3.73;;;3.30;;
21299;SDS011;10809;49.476;11.016;2023-04-25T06:22:19;3.47;;;3.10;;
21299;SDS011;10809;49.476;11.016;2023-04-25T06:24:49;5.70;;;3.30;;
21299;SDS011;10809;49.476;11.016;2023-04-25T06:27:20;3.80;;;3.40;;
21299;SDS011;10809;49.476;11.016;2023-04-25T06:29:51;3.43;;;3.13;;
21299;SDS011;10809;49.476;11.016;2023-04-25T06:32:24;3.93;;;3.20;;
21299;SDS011;10809;49.476;11.016;2023-04-25T06:35:04;5.00;;;3.43;;
21299;SDS011;10809;49.476;11.016;2023-04-25T06:37:36;6.90;;;3.93;;
21299;SDS011;10809;49.476;11.016;2023-04-25T06:40:10;5.83;;;3.10;;
21299;SDS011;10809;49.476;11.016;2023-04-25T06:42:41;3.93;;;2.93;;
21299;SDS011;10809;49.476;11.016;2023-04-25T06:45:30;4.43;;;2.93;;
21299;SDS011;10809;49.476;11.016;2023-04-25T06:48:03;2.63;;;2.37;;
21299;SDS011;10809;49.476;11.016;2023-04-25T06:50:33;3.73;;;3.33;;
21299;SDS011;10809;49.476;11.016;2023-04-25T06:53:04;4.30;;;2.90;;
21299;SDS011;10809;49.476;11.016;2023-04-25T06:55:35;5.90;;;3.80;;
21299;SDS011;10809;49.476;11.016;2023-04-25T06:58:17;4.27;;;3.30;;
21299;SDS011;10809;49.476;11.016;2023-04-25T07:01:11;4.17;;;3.03;;
21299;SDS011;10809;49.476;11.016;2023-04-25T07:03:41;3.47;;;3.17;;
21299;SDS011;10809;49.476;11.016;2023-04-25T07:06:18;4.17;;;2.70;;
21299;SDS011;10809;49.476;11.016;2023-04-25T07:08:49;3.83;;;3.07;;
21299;SDS011;10809;49.476;11.016;2023-04-25T07:11:19;4.33;;;3.27;;
21299;SDS011;10809;49.476;11.016;2023-04-25T07:13:50;3.37;;;3.07;;
21299;SDS011;10809;49.476;11.016;2023-04-25T07:16:24;4.23;;;2.70;;
21299;SDS011;10809;49.476;11.016;2023-04-25T07:18:58;3.00;;;2.70;;
21299;SDS011;10809;49.476;11.016;2023-04-25T07:21:30;2.33;;;2.13;;
21299;SDS011;10809;49.476;11.016;2023-04-25T07:24:06;2.20;;;2.00;;
21299;SDS011;10809;49.476;11.016;2023-04-25T07:26:40;3.50;;;1.83;;
21299;SDS011;10809;49.476;11.016;2023-04-25T07:29:21;2.07;;;1.90;;
21299;SDS011;10809;49.476;11.016;2023-04-25T07:31:52;5.53;;;2.50;;
21299;SDS011;10809;49.476;11.016;2023-04-25T07:34:24;2.33;;;1.70;;
21299;SDS011;10809;49.476;11.016;2023-04-25T07:36:56;4.77;;;2.30;;
21299;SDS011;10809;49.476;11.016;2023-04-25T07:39:32;2.37;;;2.17;;
21299;SDS011;10809;49.476;11.016;2023-04-25T07:42:20;2.80;;;2.37;;
21299;SDS011;10809;49.476;11.016;2023-04-25T07:45:13;3.87;;;2.17;;
21299;SDS011;10809;49.476;11.016;2023-04-25T07:47:47;1.77;;;1.67;;
21299;SDS011;10809;49.476;11.016;2023-04-25T07:50:21;4.00;;;2.20;;
21299;SDS011;10809;49.476;11.016;2023-04-25T07:52:52;3.40;;;2.30;;
21299;SDS011;10809;49.476;11.016;2023-04-25T07:55:31;2.70;;;1.93;;
21299;SDS011;10809;49.476;11.016;2023-04-25T07:58:12;3.47;;;2.30;;
21299;SDS011;10809;49.476;11.016;2023-04-25T08:00:52;3.80;;;1.70;;
21299;SDS011;10809;49.476;11.016;2023-04-25T08:03:46;1.20;;;1.10;;
21299;SDS011;10809;49.476;11.016;2023-04-25T08:06:26;2.40;;;1.10;;
21299;SDS011;10809;49.476;11.016;2023-04-25T08:09:17;1.90;;;1.40;;
21299;SDS011;10809;49.476;11.016;2023-04-25T08:11:51;2.10;;;1.13;;
21299;SDS011;10809;49.476;11.016;2023-04-25T08:14:27;4.30;;;1.27;;
21299;SDS011;10809;49.476;11.016;2023-04-25T08:17:04;4.87;;;2.23;;
21299;SDS011;10809;49.476;11.016;2023-04-25T08:19:52;3.23;;;1.47;;
21299;SDS011;10809;49.476;11.016;2023-04-25T08:22:29;1.53;;;1.43;;
21299;SDS011;10809;49.476;11.016;2023-04-25T08:25:27;3.67;;;1.70;;
21299;SDS011;10809;49.476;11.016;2023-04-25T08:27:57;1.70;;;1.60;;
21299;SDS011;10809;49.476;11.016;2023-04-25T08:30:32;5.83;;;1.60;;
21299;SDS011;10809;49.476;11.016;2023-04-25T08:33:03;4.57;;;1.60;;
21299;SDS011;10809;49.476;11.016;2023-04-25T08:35:56;2.77;;;1.43;;
21299;SDS011;10809;49.476;11.016;2023-04-25T08:38:37;2.80;;;1.87;;
21299;SDS011;10809;49.476;11.016;2023-04-25T08:41:14;1.53;;;1.43;;
21299;SDS011;10809;49.476;11.016;2023-04-25T08:43:46;2.00;;;1.63;;
21299;SDS011;10809;49.476;11.016;2023-04-25T08:46:20;2.97;;;1.93;;
21299;SDS011;10809;49.476;11.016;2023-04-25T08:49:04;2.73;;;1.90;;
21299;SDS011;10809;49.476;11.016;2023-04-25T08:51:36;2.30;;;2.10;;
21299;SDS011;10809;49.476;11.016;2023-04-25T08:54:17;4.23;;;2.20;;
21299;SDS011;10809;49.476;11.016;2023-04-25T08:56:54;4.20;;;2.20;;
21299;SDS011;10809;49.476;11.016;2023-04-25T08:59:39;3.07;;;2.47;;
21299;SDS011;10809;49.476;11.016;2023-04-25T09:02:26;3.60;;;2.30;;
21299;SDS011;10809;49.476;11.016;2023-04-25T09:04:57;3.30;;;2.20;;
21299;SDS011;10809;49.476;11.016;2023-04-25T09:07:28;2.57;;;2.37;;
21299;SDS011;10809;49.476;11.016;2023-04-25T09:10:01;3.30;;;2.47;;
21299;SDS011;10809;49.476;11.016;2023-04-25T09:12:35;3.03;;;2.60;;
21299;SDS011;10809;49.476;11.016;2023-04-25T09:15:11;2.77;;;2.50;;
21299;SDS011;10809;49.476;11.016;2023-04-25T09:18:04;2.73;;;2.53;;
21299;SDS011;10809;49.476;11.016;2023-04-25T09:20:44;2.93;;;2.60;;
21299;SDS011;10809;49.476;11.016;2023-04-25T09:23:23;3.97;;;2.53;;
21299;SDS011;10809;49.476;11.016;2023-04-25T09:26:00;3.10;;;2.83;;
21299;SDS011;10809;49.476;11.016;2023-04-25T09:28:31;2.93;;;2.63;;
21299;SDS011;10809;49.476;11.016;2023-04-25T09:31:04;3.37;;;2.70;;
21299;SDS011;10809;49.476;11.016;2023-04-25T09:33:43;3.07;;;2.67;;
21299;SDS011;10809;49.476;11.016;2023-04-25T09:36:14;3.27;;;2.07;;
21299;SDS011;10809;49.476;11.016;2023-04-25T09:39:12;3.17;;;2.87;;
21299;SDS011;10809;49.476;11.016;2023-04-25T09:41:53;3.40;;;2.60;;
21299;SDS011;10809;49.476;11.016;2023-04-25T09:44:24;2.60;;;2.40;;
21299;SDS011;10809;49.476;11.016;2023-04-25T09:46:59;2.73;;;2.37;;
21299;SDS011;10809;49.476;11.016;2023-04-25T09:49:32;2.30;;;2.10;;
21299;SDS011;10809;49.476;11.016;2023-04-25T09:52:16;2.03;;;1.90;;
21299;SDS011;10809;49.476;11.016;2023-04-25T09:54:58;2.10;;;1.90;;
21299;SDS011;10809;49.476;11.016;2023-04-25T09:57:38;3.90;;;2.60;;
21299;SDS011;10809;49.476;11.016;2023-04-25T10:00:15;3.87;;;2.50;;
21299;SDS011;10809;49.476;11.016;2023-04-25T10:02:47;2.90;;;2.53;;
21299;SDS011;10809;49.476;11.016;2023-04-25T10:05:53;2.60;;;2.40;;
21299;SDS011;10809;49.476;11.016;2023-04-25T10:08:31;4.53;;;2.10;;
21299;SDS011;10809;49.476;11.016;2023-04-25T10:11:07;2.47;;;2.23;;
21299;SDS011;10809;49.476;11.016;2023-04-25T10:13:51;2.57;;;2.37;;
21299;SDS011;10809;49.476;11.016;2023-04-25T10:16:22;2.00;;;1.87;;
21299;SDS011;10809;49.476;11.016;2023-04-25T10:19:13;5.13;;;1.87;;
21299;SDS011;10809;49.476;11.016;2023-04-25T10:21:54;2.37;;;2.17;;
21299;SDS011;10809;49.476;11.016;2023-04-25T10:24:33;1.70;;;1.57;;
21299;SDS011;10809;49.476;11.016;2023-04-25T10:27:08;1.17;;;1.17;;
21299;SDS011;10809;49.476;11.016;2023-04-25T10:29:39;1.00;;;1.00;;
21299;SDS011;10809;49.476;11.016;2023-04-25T10:32:13;3.03;;;1.43;;
21299;SDS011;10809;49.476;11.016;2023-04-25T10:34:47;1.70;;;1.60;;
21299;SDS011;10809;49.476;11.016;2023-04-25T10:37:18;2.37;;;1.27;;
21299;SDS011;10809;49.476;11.016;2023-04-25T10:39:49;1.30;;;1.20;;
21299;SDS011;10809;49.476;11.016;2023-04-25T10:42:20;3.30;;;1.67;;
21299;SDS011;10809;49.476;11.016;2023-04-25T10:45:09;2.10;;;1.03;;
21299;SDS011;10809;49.476;11.016;2023-04-25T10:47:46;3.47;;;1.00;;
21299;SDS011;10809;49.476;11.016;2023-04-25T10:50:19;1.97;;;1.03;;
21299;SDS011;10809;49.476;11.016;2023-04-25T10:52:49;1.23;;;0.80;;
21299;SDS011;10809;49.476;11.016;2023-04-25T10:55:21;0.77;;;0.77;;
21299;SDS011;10809;49.476;11.016;2023-04-25T10:57:51;1.30;;;0.70;;
21299;SDS011;10809;49.476;11.016;2023-04-25T11:00:23;0.80;;;0.80;;
21299;SDS011;10809;49.476;11.016;2023-04-25T11:03:00;1.13;;;0.73;;
21299;SDS011;10809;49.476;11.016;2023-04-25T11:05:35;1.43;;;0.70;;
21299;SDS011;10809;49.476;11.016;2023-04-25T11:08:10;1.70;;;0.97;;
21299;SDS011;10809;49.476;11.016;2023-04-25T11:10:44;2.60;;;1.00;;
21299;SDS011;10809;49.476;11.016;2023-04-25T11:13:21;1.23;;;0.50;;
21299;SDS011;10809;49.476;11.016;2023-04-25T11:15:51;1.07;;;0.60;;
21299;SDS011;10809;49.476;11.016;2023-04-25T11:18:25;1.20;;;1.10;;
21299;SDS011;10809;49.476;11.016;2023-04-25T11:20:56;1.17;;;1.07;;
21299;SDS011;10809;49.476;11.016;2023-04-25T11:23:39;0.77;;;0.53;;
21299;SDS011;10809;49.476;11.016;2023-04-25T11:26:12;0.70;;;0.50;;
21299;SDS011;10809;49.476;11.016;2023-04-25T11:28:50;1.50;;;0.63;;
21299;SDS011;10809;49.476;11.016;2023-04-25T11:31:21;1.23;;;0.53;;
21299;SDS011;10809;49.476;11.016;2023-04-25T11:34:01;0.63;;;0.63;;
21299;SDS011;10809;49.476;11.016;2023-04-25T11:36:32;3.40;;;0.77;;
21299;SDS011;10809;49.476;11.016;2023-04-25T11:39:03;1.37;;;0.70;;
21299;SDS011;10809;49.476;11.016;2023-04-25T11:41:37;1.10;;;0.93;;
21299;SDS011;10809;49.476;11.016;2023-04-25T11:44:08;0.43;;;0.43;;
21299;SDS011;10809;49.476;11.016;2023-04-25T11:46:38;0.67;;;0.67;;
21299;SDS011;10809;49.476;11.016;2023-04-25T11:49:09;1.40;;;0.70;;
21299;SDS011;10809;49.476;11.016;2023-04-25T11:51:40;0.73;;;0.57;;
21299;SDS011;10809;49.476;11.016;2023-04-25T11:54:11;0.73;;;0.53;;
21299;SDS011;10809;49.476;11.016;2023-04-25T11:56:43;0.73;;;0.60;;
21299;SDS011;10809;49.476;11.016;2023-04-25T11:59:15;0.40;;;0.40;;
21299;SDS011;10809;49.476;11.016;2023-04-25T12:01:49;0.43;;;0.43;;
21299;SDS011;10809;49.476;11.016;2023-04-25T12:04:21;0.97;;;0.70;;
21299;SDS011;10809;49.476;11.016;2023-04-25T12:06:53;1.23;;;0.63;;
21299;SDS011;10809;49.476;11.016;2023-04-25T12:09:31;1.27;;;1.17;;
21299;SDS011;10809;49.476;11.016;2023-04-25T12:12:03;1.40;;;0.57;;
21299;SDS011;10809;49.476;11.016;2023-04-25T12:14:34;0.67;;;0.67;;
21299;SDS011;10809;49.476;11.016;2023-04-25T12:17:05;1.33;;;0.60;;
21299;SDS011;10809;49.476;11.016;2023-04-25T12:19:38;1.17;;;0.73;;
21299;SDS011;10809;49.476;11.016;2023-04-25T12:22:23;0.60;;;0.60;;
21299;SDS011;10809;49.476;11.016;2023-04-25T12:24:54;0.77;;;0.77;;
21299;SDS011;10809;49.476;11.016;2023-04-25T12:27:31;1.80;;;0.60;;
21299;SDS011;10809;49.476;11.016;2023-04-25T12:30:09;0.60;;;0.50;;
21299;SDS011;10809;49.476;11.016;2023-04-25T12:32:40;0.50;;;0.50;;
21299;SDS011;10809;49.476;11.016;2023-04-25T12:35:11;0.93;;;0.70;;
21299;SDS011;10809;49.476;11.016;2023-04-25T12:37:51;0.80;;;0.80;;
21299;SDS011;10809;49.476;11.016;2023-04-25T12:40:22;1.13;;;0.70;;
21299;SDS011;10809;49.476;11.016;2023-04-25T12:42:52;0.57;;;0.57;;
21299;SDS011;10809;49.476;11.016;2023-04-25T12:45:23;0.80;;;0.80;;
21299;SDS011;10809;49.476;11.016;2023-04-25T12:47:53;0.70;;;0.70;;
21299;SDS011;10809;49.476;11.016;2023-04-25T12:50:26;0.80;;;0.80;;
21299;SDS011;10809;49.476;11.016;2023-04-25T12:52:57;0.83;;;0.70;;
21299;SDS011;10809;49.476;11.016;2023-04-25T12:55:27;0.83;;;0.83;;
21299;SDS011;10809;49.476;11.016;2023-04-25T12:57:58;0.70;;;0.60;;
21299;SDS011;10809;49.476;11.016;2023-04-25T13:00:29;1.30;;;0.87;;
21299;SDS011;10809;49.476;11.016;2023-04-25T13:03:00;0.93;;;0.93;;
21299;SDS011;10809;49.476;11.016;2023-04-25T13:05:31;2.33;;;0.97;;
21299;SDS011;10809;49.476;11.016;2023-04-25T13:08:07;2.53;;;1.10;;
21299;SDS011;10809;49.476;11.016;2023-04-25T13:10:38;3.20;;;1.07;;
21299;SDS011;10809;49.476;11.016;2023-04-25T13:13:09;1.50;;;0.63;;
21299;SDS011;10809;49.476;11.016;2023-04-25T13:15:39;1.10;;;1.00;;
21299;SDS011;10809;49.476;11.016;2023-04-25T13:18:10;1.63;;;0.80;;
21299;SDS011;10809;49.476;11.016;2023-04-25T13:20:41;0.77;;;0.77;;
21299;SDS011;10809;49.476;11.016;2023-04-25T13:23:11;0.50;;;0.50;;
21299;SDS011;10809;49.476;11.016;2023-04-25T13:25:42;1.27;;;0.93;;
21299;SDS011;10809;49.476;11.016;2023-04-25T13:28:13;0.80;;;0.80;;
21299;SDS011;10809;49.476;11.016;2023-04-25T13:30:44;2.93;;;0.80;;
21299;SDS011;10809;49.476;11.016;2023-04-25T13:33:14;2.13;;;1.20;;
21299;SDS011;10809;49.476;11.016;2023-04-25T13:35:45;1.17;;;1.00;;
21299;SDS011;10809;49.476;11.016;2023-04-25T13:38:23;2.40;;;1.37;;
21299;SDS011;10809;49.476;11.016;2023-04-25T13:40:55;1.00;;;0.87;;
21299;SDS011;10809;49.476;11.016;2023-04-25T13:43:28;0.87;;;0.87;;
21299;SDS011;10809;49.476;11.016;2023-04-25T13:45:59;2.27;;;1.07;;
21299;SDS011;10809;49.476;11.016;2023-04-25T13:48:29;1.60;;;1.20;;
21299;SDS011;10809;49.476;11.016;2023-04-25T13:51:00;1.87;;;1.00;;
21299;SDS011;10809;49.476;11.016;2023-04-25T13:53:34;1.77;;;1.00;;
21299;SDS011;10809;49.476;11.016;2023-04-25T13:56:04;1.33;;;1.27;;
21299;SDS011;10809;49.476;11.016;2023-04-25T13:58:41;1.97;;;1.30;;
21299;SDS011;10809;49.476;11.016;2023-04-25T14:01:12;3.70;;;1.23;;
21299;SDS011;10809;49.476;11.016;2023-04-25T14:03:43;1.73;;;1.20;;
21299;SDS011;10809;49.476;11.016;2023-04-25T14:06:14;2.50;;;1.67;;
21299;SDS011;10809;49.476;11.016;2023-04-25T14:09:00;1.67;;;1.13;;
21299;SDS011;10809;49.476;11.016;2023-04-25T14:11:31;1.67;;;1.53;;
21299;SDS011;10809;49.476;11.016;2023-04-25T14:14:01;2.27;;;1.07;;
21299;SDS011;10809;49.476;11.016;2023-04-25T14:16:33;1.73;;;1.10;;
21299;SDS011;10809;49.476;11.016;2023-04-25T14:19:04;2.30;;;1.17;;
21299;SDS011;10809;49.476;11.016;2023-04-25T14:21:38;2.83;;;1.10;;
21299;SDS011;10809;49.476;11.016;2023-04-25T14:25:11;1.80;;;1.30;;
21299;SDS011;10809;49.476;11.016;2023-04-25T14:28:11;1.40;;;1.20;;
21299;SDS011;10809;49.476;11.016;2023-04-25T14:31:16;1.53;;;1.43;;
21299;SDS011;10809;49.476;11.016;2023-04-25T14:34:25;2.50;;;1.40;;
21299;SDS011;10809;49.476;11.016;2023-04-25T14:36:55;2.50;;;1.50;;
21299;SDS011;10809;49.476;11.016;2023-04-25T14:39:25;2.50;;;1.67;;
21299;SDS011;10809;49.476;11.016;2023-04-25T14:41:56;2.23;;;1.33;;
21299;SDS011;10809;49.476;11.016;2023-04-25T14:44:26;7.00;;;1.90;;
21299;SDS011;10809;49.476;11.016;2023-04-25T14:47:00;1.43;;;1.33;;
21299;SDS011;10809;49.476;11.016;2023-04-25T14:49:31;1.70;;;1.60;;
21299;SDS011;10809;49.476;11.016;2023-04-25T14:52:02;3.20;;;1.60;;
21299;SDS011;10809;49.476;11.016;2023-04-25T14:54:33;1.53;;;1.40;;
21299;SDS011;10809;49.476;11.016;2023-04-25T14:57:03;1.97;;;1.80;;
21299;SDS011;10809;49.476;11.016;2023-04-25T14:59:37;3.57;;;1.70;;
21299;SDS011;10809;49.476;11.016;2023-04-25T15:02:09;3.23;;;1.63;;
21299;SDS011;10809;49.476;11.016;2023-04-25T15:04:51;1.97;;;1.50;;
21299;SDS011;10809;49.476;11.016;2023-04-25T15:07:21;1.90;;;1.77;;
21299;SDS011;10809;49.476;11.016;2023-04-25T15:09:52;1.60;;;1.20;;
21299;SDS011;10809;49.476;11.016;2023-04-25T15:12:23;1.47;;;1.37;;
21299;SDS011;10809;49.476;11.016;2023-04-25T15:14:56;3.87;;;1.77;;
21299;SDS011;10809;49.476;11.016;2023-04-25T15:17:29;1.53;;;1.43;;
21299;SDS011;10809;49.476;11.016;2023-04-25T15:23:05;1.97;;;1.60;;
21299;SDS011;10809;49.476;11.016;2023-04-25T15:25:36;2.80;;;2.00;;
21299;SDS011;10809;49.476;11.016;2023-04-25T15:28:06;6.40;;;1.33;;